sensor_id;sensor_type;location;lat;lon;timestamp;temperature;humidity
25302;DHT22;13243;50.888;4.724;2023-07-24T00:02:13;18.40;99.90
25302;DHT22;13243;50.888;4.724;2023-07-24T00:07:15;18.50;99.90
25302;DHT22;13243;50.888;4.724;2023-07-24T00:12:17;18.50;99.90
25302;DHT22;13243;50.888;4.724;2023-07-24T00:17:19;18.50;99.90
25302;DHT22;13243;50.888;4.724;2023-07-24T00:22:21;18.60;99.90
25302;DHT22;13243;50.888;4.724;2023-07-24T00:27:23;18.60;99.90
25302;DHT22;13243;50.888;4.724;2023-07-24T00:32:24;18.60;99.90
25302;DHT22;13243;50.888;4.724;2023-07-24T00:37:26;18.60;99.90
25302;DHT22;13243;50.888;4.724;2023-07-24T00:42:28;18.70;99.90
25302;DHT22;13243;50.888;4.724;2023-07-24T00:47:30;18.70;99.90
25302;DHT22;13243;50.888;4.724;2023-07-24T00:52:32;18.70;99.90
25302;DHT22;13243;50.888;4.724;2023-07-24T00:57:34;18.80;99.90
25302;DHT22;13243;50.888;4.724;2023-07-24T01:02:37;18.80;99.90
25302;DHT22;13243;50.888;4.724;2023-07-24T01:07:40;18.80;99.90
25302;DHT22;13243;50.888;4.724;2023-07-24T01:17:53;18.80;99.90
25302;DHT22;13243;50.888;4.724;2023-07-24T01:28:29;18.80;99.90
25302;DHT22;13243;50.888;4.724;2023-07-24T01:33:31;18.80;99.90
25302;DHT22;13243;50.888;4.724;2023-07-24T01:38:36;18.70;99.90
25302;DHT22;13243;50.888;4.724;2023-07-24T01:43:39;18.70;99.90
25302;DHT22;13243;50.888;4.724;2023-07-24T01:48:41;18.60;99.90
25302;DHT22;13243;50.888;4.724;2023-07-24T01:53:43;18.60;99.90
25302;DHT22;13243;50.888;4.724;2023-07-24T01:58:45;18.60;99.90
25302;DHT22;13243;50.888;4.724;2023-07-24T02:03:46;18.50;99.90
25302;DHT22;13243;50.888;4.724;2023-07-24T02:08:48;18.50;99.90
25302;DHT22;13243;50.888;4.724;2023-07-24T02:13:52;18.40;99.90
25302;DHT22;13243;50.888;4.724;2023-07-24T02:18:54;18.40;99.90
25302;DHT22;13243;50.888;4.724;2023-07-24T02:23:56;18.40;99.90
25302;DHT22;13243;50.888;4.724;2023-07-24T02:28:58;18.30;99.90
25302;DHT22;13243;50.888;4.724;2023-07-24T02:34:00;18.30;99.90
25302;DHT22;13243;50.888;4.724;2023-07-24T02:39:02;18.30;99.90
25302;DHT22;13243;50.888;4.724;2023-07-24T02:44:04;18.30;99.90
25302;DHT22;13243;50.888;4.724;2023-07-24T02:49:06;18.30;99.90
25302;DHT22;13243;50.888;4.724;2023-07-24T02:54:08;18.30;99.90
25302;DHT22;13243;50.888;4.724;2023-07-24T02:59:10;18.30;99.90
25302;DHT22;13243;50.888;4.724;2023-07-24T03:04:12;18.30;99.90
25302;DHT22;13243;50.888;4.724;2023-07-24T03:09:14;18.30;99.90
25302;DHT22;13243;50.888;4.724;2023-07-24T03:14:16;18.20;99.90
25302;DHT22;13243;50.888;4.724;2023-07-24T03:19:18;18.30;99.90
25302;DHT22;13243;50.888;4.724;2023-07-24T03:24:21;18.30;99.90
25302;DHT22;13243;50.888;4.724;2023-07-24T03:29:23;18.20;99.90
25302;DHT22;13243;50.888;4.724;2023-07-24T03:34:25;18.20;99.90
25302;DHT22;13243;50.888;4.724;2023-07-24T03:39:27;18.20;99.90
25302;DHT22;13243;50.888;4.724;2023-07-24T03:44:29;18.20;99.90
25302;DHT22;13243;50.888;4.724;2023-07-24T03:49:31;18.10;99.90
25302;DHT22;13243;50.888;4.724;2023-07-24T03:54:33;18.00;99.90
25302;DHT22;13243;50.888;4.724;2023-07-24T03:59:35;18.10;99.90
25302;DHT22;13243;50.888;4.724;2023-07-24T04:04:37;18.00;99.90
25302;DHT22;13243;50.888;4.724;2023-07-24T04:09:39;17.90;99.90
25302;DHT22;13243;50.888;4.724;2023-07-24T04:14:41;17.80;99.90
25302;DHT22;13243;50.888;4.724;2023-07-24T04:19:43;17.90;99.90
25302;DHT22;13243;50.888;4.724;2023-07-24T04:24:45;17.80;99.90
25302;DHT22;13243;50.888;4.724;2023-07-24T04:29:47;17.70;99.90
25302;DHT22;13243;50.888;4.724;2023-07-24T04:34:49;17.60;99.90
25302;DHT22;13243;50.888;4.724;2023-07-24T04:39:51;17.60;99.90
25302;DHT22;13243;50.888;4.724;2023-07-24T04:44:52;17.70;99.90
25302;DHT22;13243;50.888;4.724;2023-07-24T04:49:54;17.60;99.90
25302;DHT22;13243;50.888;4.724;2023-07-24T04:54:57;17.70;99.90
25302;DHT22;13243;50.888;4.724;2023-07-24T04:59:58;17.60;99.90
25302;DHT22;13243;50.888;4.724;2023-07-24T05:05:01;17.70;99.90
25302;DHT22;13243;50.888;4.724;2023-07-24T05:10:03;17.60;99.90
25302;DHT22;13243;50.888;4.724;2023-07-24T05:15:06;17.50;99.90
25302;DHT22;13243;50.888;4.724;2023-07-24T05:20:08;17.60;99.90
25302;DHT22;13243;50.888;4.724;2023-07-24T05:25:10;17.60;99.90
25302;DHT22;13243;50.888;4.724;2023-07-24T05:30:12;17.60;99.90
25302;DHT22;13243;50.888;4.724;2023-07-24T05:35:14;17.60;99.90
25302;DHT22;13243;50.888;4.724;2023-07-24T05:40:16;17.70;99.90
25302;DHT22;13243;50.888;4.724;2023-07-24T05:45:18;17.80;99.90
25302;DHT22;13243;50.888;4.724;2023-07-24T05:50:20;17.80;99.90
25302;DHT22;13243;50.888;4.724;2023-07-24T05:55:22;17.80;99.90
25302;DHT22;13243;50.888;4.724;2023-07-24T06:00:24;17.60;99.90
25302;DHT22;13243;50.888;4.724;2023-07-24T06:05:26;17.60;99.90
25302;DHT22;13243;50.888;4.724;2023-07-24T06:10:28;17.70;99.90
25302;DHT22;13243;50.888;4.724;2023-07-24T06:15:30;17.80;99.90
25302;DHT22;13243;50.888;4.724;2023-07-24T06:20:32;17.90;99.90
25302;DHT22;13243;50.888;4.724;2023-07-24T06:25:33;17.80;99.90
25302;DHT22;13243;50.888;4.724;2023-07-24T06:30:35;17.90;99.90
25302;DHT22;13243;50.888;4.724;2023-07-24T06:35:37;18.00;99.90
25302;DHT22;13243;50.888;4.724;2023-07-24T06:40:40;18.00;99.90
25302;DHT22;13243;50.888;4.724;2023-07-24T06:45:42;18.10;99.90
25302;DHT22;13243;50.888;4.724;2023-07-24T06:50:44;18.00;99.90
25302;DHT22;13243;50.888;4.724;2023-07-24T06:55:46;18.10;99.90
25302;DHT22;13243;50.888;4.724;2023-07-24T07:00:48;18.10;99.90
25302;DHT22;13243;50.888;4.724;2023-07-24T07:05:49;18.30;99.90
25302;DHT22;13243;50.888;4.724;2023-07-24T07:11:01;18.20;99.90
25302;DHT22;13243;50.888;4.724;2023-07-24T07:16:03;18.50;99.90
25302;DHT22;13243;50.888;4.724;2023-07-24T07:21:05;18.40;99.90
25302;DHT22;13243;50.888;4.724;2023-07-24T07:26:07;18.30;99.90
25302;DHT22;13243;50.888;4.724;2023-07-24T07:31:09;18.40;99.90
25302;DHT22;13243;50.888;4.724;2023-07-24T07:36:10;18.40;99.90
25302;DHT22;13243;50.888;4.724;2023-07-24T07:41:13;18.50;99.90
25302;DHT22;13243;50.888;4.724;2023-07-24T07:46:15;18.40;99.90
25302;DHT22;13243;50.888;4.724;2023-07-24T07:51:17;18.40;99.90
25302;DHT22;13243;50.888;4.724;2023-07-24T07:56:19;18.40;99.90
25302;DHT22;13243;50.888;4.724;2023-07-24T08:01:21;18.30;99.90
25302;DHT22;13243;50.888;4.724;2023-07-24T08:06:23;18.40;99.90
25302;DHT22;13243;50.888;4.724;2023-07-24T08:11:26;18.40;99.90
25302;DHT22;13243;50.888;4.724;2023-07-24T08:16:28;18.60;99.90
25302;DHT22;13243;50.888;4.724;2023-07-24T08:21:30;18.60;99.90
25302;DHT22;13243;50.888;4.724;2023-07-24T08:26:32;18.40;99.90
25302;DHT22;13243;50.888;4.724;2023-07-24T08:31:34;18.50;99.90
25302;DHT22;13243;50.888;4.724;2023-07-24T08:36:36;18.60;99.90
25302;DHT22;13243;50.888;4.724;2023-07-24T08:41:39;18.90;99.90
25302;DHT22;13243;50.888;4.724;2023-07-24T08:46:41;19.20;99.90
25302;DHT22;13243;50.888;4.724;2023-07-24T08:51:47;19.10;99.90
25302;DHT22;13243;50.888;4.724;2023-07-24T08:56:50;19.10;99.90
25302;DHT22;13243;50.888;4.724;2023-07-24T09:01:53;19.00;99.90
25302;DHT22;13243;50.888;4.724;2023-07-24T09:06:57;19.10;99.90
25302;DHT22;13243;50.888;4.724;2023-07-24T09:12:00;19.00;99.90
25302;DHT22;13243;50.888;4.724;2023-07-24T09:17:11;18.80;99.90
25302;DHT22;13243;50.888;4.724;2023-07-24T09:22:15;18.50;99.90
25302;DHT22;13243;50.888;4.724;2023-07-24T09:27:20;18.20;99.90
25302;DHT22;13243;50.888;4.724;2023-07-24T09:32:23;18.20;99.90
25302;DHT22;13243;50.888;4.724;2023-07-24T09:37:31;18.10;99.90
25302;DHT22;13243;50.888;4.724;2023-07-24T09:42:34;18.00;99.90
25302;DHT22;13243;50.888;4.724;2023-07-24T09:47:54;17.90;99.90
25302;DHT22;13243;50.888;4.724;2023-07-24T09:53:06;17.80;99.90
25302;DHT22;13243;50.888;4.724;2023-07-24T09:58:12;17.80;99.90
25302;DHT22;13243;50.888;4.724;2023-07-24T10:03:15;17.70;99.90
25302;DHT22;13243;50.888;4.724;2023-07-24T10:08:18;17.80;99.90
25302;DHT22;13243;50.888;4.724;2023-07-24T10:13:21;18.00;99.90
25302;DHT22;13243;50.888;4.724;2023-07-24T10:18:27;18.50;99.90
25302;DHT22;13243;50.888;4.724;2023-07-24T10:23:30;18.80;99.90
25302;DHT22;13243;50.888;4.724;2023-07-24T10:28:34;18.80;99.90
25302;DHT22;13243;50.888;4.724;2023-07-24T10:33:44;18.80;99.90
25302;DHT22;13243;50.888;4.724;2023-07-24T10:38:52;18.70;99.90
25302;DHT22;13243;50.888;4.724;2023-07-24T10:43:59;18.80;99.90
25302;DHT22;13243;50.888;4.724;2023-07-24T10:49:02;19.30;99.90
25302;DHT22;13243;50.888;4.724;2023-07-24T10:54:04;19.40;99.90
25302;DHT22;13243;50.888;4.724;2023-07-24T10:59:07;19.00;99.90
25302;DHT22;13243;50.888;4.724;2023-07-24T11:04:09;19.20;99.90
25302;DHT22;13243;50.888;4.724;2023-07-24T11:09:14;18.90;99.90
25302;DHT22;13243;50.888;4.724;2023-07-24T11:14:16;19.20;99.90
25302;DHT22;13243;50.888;4.724;2023-07-24T11:19:25;18.60;99.90
25302;DHT22;13243;50.888;4.724;2023-07-24T11:24:27;18.60;99.90
25302;DHT22;13243;50.888;4.724;2023-07-24T11:29:30;18.50;99.90
25302;DHT22;13243;50.888;4.724;2023-07-24T11:34:35;18.80;99.90
25302;DHT22;13243;50.888;4.724;2023-07-24T11:39:37;18.30;99.90
25302;DHT22;13243;50.888;4.724;2023-07-24T11:44:39;18.20;99.90
25302;DHT22;13243;50.888;4.724;2023-07-24T11:49:41;18.40;99.90
25302;DHT22;13243;50.888;4.724;2023-07-24T11:54:56;18.30;99.90
25302;DHT22;13243;50.888;4.724;2023-07-24T12:00:04;18.30;99.90
25302;DHT22;13243;50.888;4.724;2023-07-24T12:05:09;18.20;99.90
25302;DHT22;13243;50.888;4.724;2023-07-24T12:10:12;18.40;99.90
25302;DHT22;13243;50.888;4.724;2023-07-24T12:15:15;18.90;99.90
25302;DHT22;13243;50.888;4.724;2023-07-24T12:20:16;19.10;99.90
25302;DHT22;13243;50.888;4.724;2023-07-24T12:25:18;19.10;99.90
25302;DHT22;13243;50.888;4.724;2023-07-24T12:30:21;19.80;99.90
25302;DHT22;13243;50.888;4.724;2023-07-24T12:35:23;20.30;99.90
25302;DHT22;13243;50.888;4.724;2023-07-24T12:40:25;20.50;99.90
25302;DHT22;13243;50.888;4.724;2023-07-24T12:45:27;20.80;99.90
25302;DHT22;13243;50.888;4.724;2023-07-24T12:50:29;20.30;99.90
25302;DHT22;13243;50.888;4.724;2023-07-24T12:55:32;20.30;99.90
25302;DHT22;13243;50.888;4.724;2023-07-24T13:00:34;19.80;99.90
25302;DHT22;13243;50.888;4.724;2023-07-24T13:05:36;19.60;99.90
25302;DHT22;13243;50.888;4.724;2023-07-24T13:10:38;19.90;99.90
25302;DHT22;13243;50.888;4.724;2023-07-24T13:15:40;20.40;99.90
25302;DHT22;13243;50.888;4.724;2023-07-24T13:20:42;20.60;99.90
25302;DHT22;13243;50.888;4.724;2023-07-24T13:25:44;20.80;99.90
25302;DHT22;13243;50.888;4.724;2023-07-24T13:30:46;20.70;99.90
25302;DHT22;13243;50.888;4.724;2023-07-24T13:35:48;20.50;99.90
25302;DHT22;13243;50.888;4.724;2023-07-24T13:40:50;20.20;99.90
25302;DHT22;13243;50.888;4.724;2023-07-24T13:45:52;20.00;99.90
25302;DHT22;13243;50.888;4.724;2023-07-24T13:50:55;20.10;99.90
25302;DHT22;13243;50.888;4.724;2023-07-24T13:55:57;20.40;99.90
25302;DHT22;13243;50.888;4.724;2023-07-24T14:00:59;20.30;99.90
25302;DHT22;13243;50.888;4.724;2023-07-24T14:06:01;20.40;99.90
25302;DHT22;13243;50.888;4.724;2023-07-24T14:11:03;20.10;99.90
25302;DHT22;13243;50.888;4.724;2023-07-24T14:16:05;20.50;99.90
25302;DHT22;13243;50.888;4.724;2023-07-24T14:21:06;21.50;99.90
25302;DHT22;13243;50.888;4.724;2023-07-24T14:26:08;21.80;99.90
25302;DHT22;13243;50.888;4.724;2023-07-24T14:31:11;20.90;99.90
25302;DHT22;13243;50.888;4.724;2023-07-24T14:36:13;20.70;99.90
25302;DHT22;13243;50.888;4.724;2023-07-24T14:41:15;20.60;99.90
25302;DHT22;13243;50.888;4.724;2023-07-24T14:46:17;20.70;99.90
25302;DHT22;13243;50.888;4.724;2023-07-24T14:51:19;20.70;99.90
25302;DHT22;13243;50.888;4.724;2023-07-24T14:56:21;20.70;99.90
25302;DHT22;13243;50.888;4.724;2023-07-24T15:01:23;20.30;99.90
25302;DHT22;13243;50.888;4.724;2023-07-24T15:06:25;19.90;99.90
25302;DHT22;13243;50.888;4.724;2023-07-24T15:11:27;19.60;99.90
25302;DHT22;13243;50.888;4.724;2023-07-24T15:16:29;19.10;99.90
25302;DHT22;13243;50.888;4.724;2023-07-24T15:21:31;18.90;99.90
25302;DHT22;13243;50.888;4.724;2023-07-24T15:26:33;18.90;99.90
25302;DHT22;13243;50.888;4.724;2023-07-24T15:31:36;18.80;99.90
25302;DHT22;13243;50.888;4.724;2023-07-24T15:36:38;18.70;99.90
25302;DHT22;13243;50.888;4.724;2023-07-24T15:41:40;18.20;99.90
25302;DHT22;13243;50.888;4.724;2023-07-24T15:46:42;18.00;99.90
25302;DHT22;13243;50.888;4.724;2023-07-24T15:51:45;17.70;99.90
25302;DHT22;13243;50.888;4.724;2023-07-24T15:56:47;17.70;99.90
25302;DHT22;13243;50.888;4.724;2023-07-24T16:01:49;17.80;99.90
25302;DHT22;13243;50.888;4.724;2023-07-24T16:06:52;17.60;99.90
25302;DHT22;13243;50.888;4.724;2023-07-24T16:11:54;17.70;99.90
25302;DHT22;13243;50.888;4.724;2023-07-24T16:16:56;18.20;99.90
25302;DHT22;13243;50.888;4.724;2023-07-24T16:21:58;17.90;99.90
25302;DHT22;13243;50.888;4.724;2023-07-24T16:27:00;18.80;99.90
25302;DHT22;13243;50.888;4.724;2023-07-24T16:32:06;18.20;99.90
25302;DHT22;13243;50.888;4.724;2023-07-24T16:37:08;18.00;99.90
25302;DHT22;13243;50.888;4.724;2023-07-24T16:42:10;18.40;99.90
25302;DHT22;13243;50.888;4.724;2023-07-24T16:47:12;18.40;99.90
25302;DHT22;13243;50.888;4.724;2023-07-24T16:52:14;18.40;99.90
25302;DHT22;13243;50.888;4.724;2023-07-24T16:57:16;18.40;99.90
25302;DHT22;13243;50.888;4.724;2023-07-24T17:02:18;18.60;99.90
25302;DHT22;13243;50.888;4.724;2023-07-24T17:07:20;18.60;99.90
25302;DHT22;13243;50.888;4.724;2023-07-24T17:12:22;18.70;99.90
25302;DHT22;13243;50.888;4.724;2023-07-24T17:17:24;18.70;99.90
25302;DHT22;13243;50.888;4.724;2023-07-24T17:22:26;18.70;99.90
25302;DHT22;13243;50.888;4.724;2023-07-24T17:27:28;19.50;99.90
25302;DHT22;13243;50.888;4.724;2023-07-24T17:32:31;19.50;99.90
25302;DHT22;13243;50.888;4.724;2023-07-24T17:37:33;19.70;99.90
25302;DHT22;13243;50.888;4.724;2023-07-24T17:42:39;20.30;99.90
25302;DHT22;13243;50.888;4.724;2023-07-24T17:47:41;20.00;99.90
25302;DHT22;13243;50.888;4.724;2023-07-24T17:52:43;19.70;99.90
25302;DHT22;13243;50.888;4.724;2023-07-24T17:57:45;19.70;99.90
25302;DHT22;13243;50.888;4.724;2023-07-24T18:02:51;19.60;99.90
25302;DHT22;13243;50.888;4.724;2023-07-24T18:07:53;19.40;99.90
25302;DHT22;13243;50.888;4.724;2023-07-24T18:12:54;19.10;99.90
25302;DHT22;13243;50.888;4.724;2023-07-24T18:17:56;18.80;99.90
25302;DHT22;13243;50.888;4.724;2023-07-24T18:22:58;18.60;99.90
25302;DHT22;13243;50.888;4.724;2023-07-24T18:28:00;18.40;99.90
25302;DHT22;13243;50.888;4.724;2023-07-24T18:33:02;18.20;99.90
25302;DHT22;13243;50.888;4.724;2023-07-24T18:38:04;18.10;99.90
25302;DHT22;13243;50.888;4.724;2023-07-24T18:43:06;17.90;99.90
25302;DHT22;13243;50.888;4.724;2023-07-24T18:48:08;17.80;99.90
25302;DHT22;13243;50.888;4.724;2023-07-24T18:53:11;17.80;99.90
25302;DHT22;13243;50.888;4.724;2023-07-24T18:58:13;17.60;99.90
25302;DHT22;13243;50.888;4.724;2023-07-24T19:03:15;17.40;99.90
25302;DHT22;13243;50.888;4.724;2023-07-24T19:08:16;17.30;99.90
25302;DHT22;13243;50.888;4.724;2023-07-24T19:13:18;17.10;99.90
25302;DHT22;13243;50.888;4.724;2023-07-24T19:18:20;17.20;99.90
25302;DHT22;13243;50.888;4.724;2023-07-24T19:23:22;17.10;99.90
25302;DHT22;13243;50.888;4.724;2023-07-24T19:28:24;17.20;99.90
25302;DHT22;13243;50.888;4.724;2023-07-24T19:33:26;17.10;99.90
25302;DHT22;13243;50.888;4.724;2023-07-24T19:38:28;16.80;99.90
25302;DHT22;13243;50.888;4.724;2023-07-24T19:43:30;16.60;99.90
25302;DHT22;13243;50.888;4.724;2023-07-24T19:48:32;16.60;99.90
25302;DHT22;13243;50.888;4.724;2023-07-24T19:53:34;16.60;99.90
25302;DHT22;13243;50.888;4.724;2023-07-24T19:58:35;16.40;99.90
25302;DHT22;13243;50.888;4.724;2023-07-24T20:03:38;16.40;99.90
25302;DHT22;13243;50.888;4.724;2023-07-24T20:08:40;16.30;99.90
25302;DHT22;13243;50.888;4.724;2023-07-24T20:13:42;16.10;99.90
25302;DHT22;13243;50.888;4.724;2023-07-24T20:18:45;16.10;99.90
25302;DHT22;13243;50.888;4.724;2023-07-24T20:23:47;15.90;99.90
25302;DHT22;13243;50.888;4.724;2023-07-24T20:28:49;16.00;99.90
25302;DHT22;13243;50.888;4.724;2023-07-24T20:33:52;15.90;99.90
25302;DHT22;13243;50.888;4.724;2023-07-24T20:38:54;15.90;99.90
25302;DHT22;13243;50.888;4.724;2023-07-24T20:43:57;15.90;99.90
25302;DHT22;13243;50.888;4.724;2023-07-24T20:48:59;15.80;99.90
25302;DHT22;13243;50.888;4.724;2023-07-24T20:54:02;15.60;99.90
25302;DHT22;13243;50.888;4.724;2023-07-24T20:59:04;15.60;99.90
25302;DHT22;13243;50.888;4.724;2023-07-24T21:04:06;15.60;99.90
25302;DHT22;13243;50.888;4.724;2023-07-24T21:09:08;15.80;99.90
25302;DHT22;13243;50.888;4.724;2023-07-24T21:14:10;15.70;99.90
25302;DHT22;13243;50.888;4.724;2023-07-24T21:19:12;15.70;99.90
25302;DHT22;13243;50.888;4.724;2023-07-24T21:24:14;15.80;99.90
25302;DHT22;13243;50.888;4.724;2023-07-24T21:29:15;15.60;99.90
25302;DHT22;13243;50.888;4.724;2023-07-24T21:34:19;15.60;99.90
25302;DHT22;13243;50.888;4.724;2023-07-24T21:39:21;15.70;99.90
25302;DHT22;13243;50.888;4.724;2023-07-24T21:44:23;15.70;99.90
25302;DHT22;13243;50.888;4.724;2023-07-24T21:49:25;15.70;99.90
25302;DHT22;13243;50.888;4.724;2023-07-24T21:54:27;15.70;99.90
25302;DHT22;13243;50.888;4.724;2023-07-24T21:59:29;15.80;99.90
25302;DHT22;13243;50.888;4.724;2023-07-24T22:04:31;15.80;99.90
25302;DHT22;13243;50.888;4.724;2023-07-24T22:09:33;15.80;99.90
25302;DHT22;13243;50.888;4.724;2023-07-24T22:14:35;15.80;99.90
25302;DHT22;13243;50.888;4.724;2023-07-24T22:19:37;15.80;99.90
25302;DHT22;13243;50.888;4.724;2023-07-24T22:24:39;15.90;99.90
25302;DHT22;13243;50.888;4.724;2023-07-24T22:29:41;15.90;99.90
25302;DHT22;13243;50.888;4.724;2023-07-24T22:34:46;15.80;99.90
25302;DHT22;13243;50.888;4.724;2023-07-24T22:39:51;15.80;99.90
25302;DHT22;13243;50.888;4.724;2023-07-24T22:44:53;15.70;99.90
25302;DHT22;13243;50.888;4.724;2023-07-24T22:49:55;15.60;99.90
25302;DHT22;13243;50.888;4.724;2023-07-24T22:54:56;15.60;99.90
25302;DHT22;13243;50.888;4.724;2023-07-24T22:59:59;15.50;99.90
25302;DHT22;13243;50.888;4.724;2023-07-24T23:05:02;15.60;99.90
25302;DHT22;13243;50.888;4.724;2023-07-24T23:10:04;15.60;99.90
25302;DHT22;13243;50.888;4.724;2023-07-24T23:15:06;15.60;99.90
25302;DHT22;13243;50.888;4.724;2023-07-24T23:20:08;15.50;99.90
25302;DHT22;13243;50.888;4.724;2023-07-24T23:25:10;15.40;99.90
25302;DHT22;13243;50.888;4.724;2023-07-24T23:30:12;15.30;99.90
25302;DHT22;13243;50.888;4.724;2023-07-24T23:35:14;15.30;99.90
25302;DHT22;13243;50.888;4.724;2023-07-24T23:40:16;15.30;99.90
25302;DHT22;13243;50.888;4.724;2023-07-24T23:45:18;15.20;99.90
25302;DHT22;13243;50.888;4.724;2023-07-24T23:50:20;15.30;99.90
25302;DHT22;13243;50.888;4.724;2023-07-24T23:55:21;15.30;99.90
